Time;durP1;ratioP1;P1;durP2;ratioP2;P2;SDS_P1;SDS_P2;PMS_P1;PMS_P2;Temp;Humidity;BMP_temperature;BMP_pressure;BME280_temperature;BME280_humidity;BME280_pressure;Samples;Min_cycle;Max_cycle;Signal;HPM_P1;HPM_P2
2023/01/17 00:02:10;;;;;;;0.77;0.38;;;;;;;2.81;100.00;98395.34;5028440;28;20430;-67
2023/01/17 00:10:09;;;;;;;0.40;0.20;;;;;;;2.81;100.00;98396.16;5028774;28;20033;-66
2023/01/17 00:12:35;;;;;;;0.35;0.10;;;;;;;2.86;100.00;98399.06;5033084;28;20033;-67
2023/01/17 00:15:01;;;;;;;0.40;0.10;;;;;;;2.79;100.00;98395.50;5029025;28;20095;-67
2023/01/17 00:17:28;;;;;;;0.73;0.10;;;;;;;2.76;100.00;98397.53;5027297;28;20034;-67
2023/01/17 00:26:02;;;;;;;0.70;0.20;;;;;;;2.71;100.00;98399.75;5015651;28;20037;-66
2023/01/17 01:35:23;;;;;;;1.77;0.60;;;;;;;2.82;100.00;98453.56;5032829;28;20052;-66
2023/01/17 01:37:48;;;;;;;1.10;0.40;;;;;;;2.83;100.00;98455.97;5031454;28;20389;-66
2023/01/17 01:40:15;;;;;;;0.93;0.50;;;;;;;2.90;100.00;98454.41;5031107;28;20128;-66
2023/01/17 01:42:55;;;;;;;1.38;0.50;;;;;;;2.87;100.00;98451.31;5030014;28;20117;-65
2023/01/17 01:45:24;;;;;;;1.30;0.50;;;;;;;2.89;100.00;98452.00;5030770;28;20029;-66
2023/01/17 01:47:58;;;;;;;1.70;0.50;;;;;;;2.93;100.00;98449.00;5030500;28;20040;-67
2023/01/17 01:50:24;;;;;;;1.23;0.40;;;;;;;2.95;100.00;98441.94;5029812;28;20052;-67
2023/01/17 01:52:54;;;;;;;0.68;0.30;;;;;;;2.98;100.00;98444.22;5036273;28;20037;-66
2023/01/17 01:55:28;;;;;;;1.02;0.50;;;;;;;2.97;100.00;98441.78;5031578;28;20033;-66
2023/01/17 01:57:57;;;;;;;1.77;0.30;;;;;;;3.04;100.00;98434.31;5031045;28;20029;-66
2023/01/17 02:00:29;;;;;;;0.80;0.30;;;;;;;3.00;100.00;98434.59;5033473;28;20079;-66
2023/01/17 02:02:59;;;;;;;0.90;0.40;;;;;;;2.98;100.00;98433.13;5030655;28;20027;-67
2023/01/17 02:05:26;;;;;;;0.70;0.30;;;;;;;3.00;100.00;98437.16;5029670;28;20120;-67
2023/01/17 02:08:01;;;;;;;1.00;0.30;;;;;;;2.98;100.00;98433.13;5032355;28;20073;-66
2023/01/17 02:10:27;;;;;;;0.93;0.30;;;;;;;2.97;100.00;98431.50;5033243;28;20033;-66
2023/01/17 02:12:54;;;;;;;0.63;0.20;;;;;;;2.93;100.00;98436.13;5030529;28;20029;-66
2023/01/17 02:15:30;;;;;;;1.00;0.30;;;;;;;2.93;100.00;98438.69;5029489;28;20099;-66
2023/01/17 02:18:18;;;;;;;1.38;0.40;;;;;;;2.92;100.00;98439.66;5031031;28;20041;-66
2023/01/17 02:20:52;;;;;;;1.15;0.20;;;;;;;2.93;100.00;98445.59;5033336;28;20060;-66
2023/01/17 02:23:26;;;;;;;0.80;0.20;;;;;;;2.95;100.00;98439.38;5029720;28;20071;-66
2023/01/17 02:26:13;;;;;;;1.33;0.50;;;;;;;3.02;100.00;98433.63;5029924;28;20025;-66
2023/01/17 02:29:12;;;;;;;0.93;0.28;;;;;;;3.06;100.00;98425.47;5030888;28;20494;-66
2023/01/17 02:31:46;;;;;;;2.67;0.35;;;;;;;3.07;100.00;98424.53;5012672;28;20053;-66
2023/01/17 02:34:15;;;;;;;1.55;0.30;;;;;;;3.10;100.00;98420.84;5029963;28;20073;-66
2023/01/17 02:37:13;;;;;;;0.82;0.25;;;;;;;3.11;100.00;98414.75;5031098;28;20065;-67
2023/01/17 02:40:03;;;;;;;0.82;0.40;;;;;;;3.06;100.00;98404.91;5025984;28;20421;-66
2023/01/17 02:42:39;;;;;;;0.50;0.20;;;;;;;3.07;100.00;98401.38;5028505;28;20022;-66
2023/01/17 02:45:06;;;;;;;0.75;0.20;;;;;;;3.11;100.00;98407.03;5029376;28;20021;-66
2023/01/17 02:47:32;;;;;;;1.15;0.30;;;;;;;3.20;100.00;98414.69;5030951;28;20048;-66
2023/01/17 02:50:09;;;;;;;0.70;0.35;;;;;;;3.27;100.00;98402.03;5030402;28;20401;-66
2023/01/17 02:53:03;;;;;;;2.60;0.40;;;;;;;3.23;100.00;98398.16;5031553;28;20033;-66
2023/01/17 02:55:47;;;;;;;2.50;0.32;;;;;;;3.19;100.00;98399.41;4987788;28;20073;-66
2023/01/17 02:58:23;;;;;;;1.08;0.32;;;;;;;3.12;100.00;98399.16;4986385;28;20026;-66
2023/01/17 03:01:25;;;;;;;0.68;0.30;;;;;;;3.08;100.00;98402.19;4982250;28;20049;-66
2023/01/17 03:04:22;;;;;;;1.38;0.30;;;;;;;3.02;100.00;98393.28;4990813;28;20061;-65
2023/01/17 03:06:50;;;;;;;9.35;0.32;;;;;;;2.99;100.00;98394.38;4982034;28;20053;-66
2023/01/17 03:09:17;;;;;;;1.67;0.30;;;;;;;3.04;100.00;98400.84;4997113;28;20129;-66
2023/01/17 03:11:43;;;;;;;1.05;0.30;;;;;;;3.06;100.00;98399.75;4996419;28;20034;-66
2023/01/17 03:14:08;;;;;;;0.80;0.20;;;;;;;3.11;100.00;98399.31;4991085;28;20105;-66
2023/01/17 03:16:35;;;;;;;1.45;0.35;;;;;;;3.08;100.00;98394.47;4986372;28;20042;-66
2023/01/17 03:19:00;;;;;;;0.60;0.20;;;;;;;3.05;100.00;98397.31;4990090;28;20128;-66
2023/01/17 03:21:26;;;;;;;1.60;0.20;;;;;;;3.00;100.00;98393.44;4995686;28;20529;-67
2023/01/17 03:23:51;;;;;;;0.80;0.30;;;;;;;2.95;100.00;98392.25;4986789;28;20118;-66
2023/01/17 03:26:17;;;;;;;1.48;0.32;;;;;;;2.98;100.00;98386.81;4987225;28;20046;-66
2023/01/17 03:28:42;;;;;;;1.73;0.38;;;;;;;3.00;100.00;98398.56;4987270;28;20540;-66
2023/01/17 03:31:07;;;;;;;1.15;0.40;;;;;;;3.03;100.00;98407.78;4990327;28;20094;-66
2023/01/17 03:33:33;;;;;;;1.00;0.30;;;;;;;3.10;100.00;98415.72;5027126;28;20068;-66
2023/01/17 03:35:59;;;;;;;0.90;0.30;;;;;;;3.10;100.00;98426.00;5032954;28;20037;-66
2023/01/17 03:38:25;;;;;;;1.75;0.40;;;;;;;3.10;100.00;98426.00;5028895;28;20769;-66
2023/01/17 03:40:51;;;;;;;2.65;0.20;;;;;;;3.06;100.00;98419.53;5028466;28;20037;-66
2023/01/17 03:43:16;;;;;;;1.42;0.35;;;;;;;3.06;100.00;98424.69;5028843;28;20041;-66
2023/01/17 03:45:41;;;;;;;1.15;0.40;;;;;;;3.03;100.00;98420.63;5032128;28;20028;-66
2023/01/17 03:48:07;;;;;;;0.75;0.20;;;;;;;2.98;100.00;98423.63;5030986;28;20045;-66
2023/01/17 03:50:32;;;;;;;1.15;0.50;;;;;;;2.95;100.00;98418.78;5027203;28;20844;-66
2023/01/17 03:52:58;;;;;;;3.00;0.30;;;;;;;2.85;100.00;98412.88;5029084;28;20083;-66
2023/01/17 03:55:23;;;;;;;1.10;0.30;;;;;;;2.90;100.00;98415.84;5036520;28;20057;-66
2023/01/17 03:57:49;;;;;;;0.55;0.20;;;;;;;2.93;100.00;98428.41;5027075;28;20036;-66
2023/01/17 04:00:14;;;;;;;1.85;0.30;;;;;;;2.97;100.00;98421.22;5028048;28;20142;-66
2023/01/17 04:02:40;;;;;;;1.88;0.30;;;;;;;3.00;100.00;98426.88;5028103;28;20037;-66
2023/01/17 04:05:05;;;;;;;0.77;0.20;;;;;;;3.07;100.00;98423.72;5028818;28;20025;-67
2023/01/17 04:07:31;;;;;;;0.77;0.20;;;;;;;3.10;100.00;98423.44;5027815;28;20032;-66
2023/01/17 04:09:56;;;;;;;1.83;0.30;;;;;;;3.12;100.00;98421.53;5032272;28;20108;-66
2023/01/17 04:12:22;;;;;;;1.83;0.30;;;;;;;3.15;100.00;98424.59;5031261;28;20042;-66
2023/01/17 04:14:47;;;;;;;3.15;1.33;;;;;;;3.25;100.00;98429.69;5027777;28;20034;-67
2023/01/17 04:17:15;;;;;;;0.98;0.40;;;;;;;3.31;100.00;98423.91;5030414;28;20029;-66
2023/01/17 04:19:40;;;;;;;1.13;0.50;;;;;;;3.30;100.00;98424.91;5030044;28;20033;-66
2023/01/17 04:22:06;;;;;;;1.20;0.40;;;;;;;3.26;100.00;98421.00;5035286;28;20156;-66
2023/01/17 04:24:31;;;;;;;0.73;0.30;;;;;;;3.23;100.00;98416.16;5036773;28;20033;-66
2023/01/17 04:26:57;;;;;;;0.50;0.20;;;;;;;3.21;100.00;98423.22;5035846;28;20029;-66
2023/01/17 04:29:23;;;;;;;0.50;0.20;;;;;;;3.22;100.00;98430.78;5035228;28;20041;-66
2023/01/17 04:31:48;;;;;;;0.45;0.15;;;;;;;3.17;100.00;98416.75;5033328;28;20061;-66
2023/01/17 04:34:13;;;;;;;0.45;0.20;;;;;;;3.15;100.00;98408.34;5036140;28;20128;-66
2023/01/17 04:36:39;;;;;;;0.95;0.20;;;;;;;3.13;100.00;98411.09;5033906;28;20038;-66
2023/01/17 04:39:05;;;;;;;0.40;0.20;;;;;;;3.13;100.00;98403.38;5036518;28;20029;-66
2023/01/17 04:41:30;;;;;;;0.60;0.20;;;;;;;3.15;100.00;98398.88;5033999;28;20079;-66
2023/01/17 04:43:56;;;;;;;2.10;0.30;;;;;;;3.20;100.00;98412.13;5035412;28;20059;-66
2023/01/17 04:46:21;;;;;;;0.88;0.30;;;;;;;3.22;100.00;98396.53;5034337;28;20209;-66
2023/01/17 04:48:46;;;;;;;2.08;0.32;;;;;;;3.31;100.00;98398.19;5035860;28;20029;-66
2023/01/17 04:51:12;;;;;;;1.10;0.30;;;;;;;3.34;100.00;98400.47;5039050;28;20083;-66
2023/01/17 04:53:37;;;;;;;1.17;0.40;;;;;;;3.37;100.00;98410.47;5034811;28;20189;-66
2023/01/17 04:56:03;;;;;;;1.40;0.40;;;;;;;3.42;100.00;98405.69;5037324;28;20029;-66
2023/01/17 04:58:29;;;;;;;0.75;0.20;;;;;;;3.49;100.00;98405.91;5032505;28;20033;-66
2023/01/17 05:00:54;;;;;;;1.02;0.28;;;;;;;3.47;100.00;98408.63;5037770;28;20025;-66
2023/01/17 05:03:21;;;;;;;0.70;0.40;;;;;;;3.49;100.00;98411.03;5034361;28;20049;-66
2023/01/17 05:05:47;;;;;;;0.90;0.30;;;;;;;3.48;100.00;98412.00;5039046;28;20029;-66
2023/01/17 05:08:14;;;;;;;0.52;0.20;;;;;;;3.48;100.00;98415.38;5035984;28;20049;-67
2023/01/17 05:10:39;;;;;;;0.63;0.22;;;;;;;3.55;100.00;98433.63;5036825;28;20457;-66
2023/01/17 05:13:05;;;;;;;0.68;0.30;;;;;;;3.55;100.00;98436.19;5047797;28;20166;-67
2023/01/17 05:15:31;;;;;;;1.60;0.43;;;;;;;3.51;100.00;98429.72;5033289;28;20092;-67
2023/01/17 05:17:56;;;;;;;0.98;0.20;;;;;;;3.51;100.00;98429.72;5034058;28;20029;-67
2023/01/17 05:20:24;;;;;;;2.70;0.35;;;;;;;3.51;100.00;98438.25;5033214;28;20048;-66
2023/01/17 05:22:56;;;;;;;1.50;0.30;;;;;;;3.56;100.00;98433.47;5028496;28;20033;-67
2023/01/17 05:25:23;;;;;;;3.45;0.30;;;;;;;3.62;100.00;98419.19;5035780;28;20033;-66
2023/01/17 05:27:49;;;;;;;0.70;0.30;;;;;;;3.59;100.00;98422.88;5034652;28;20469;-66
2023/01/17 05:30:16;;;;;;;1.40;0.55;;;;;;;3.61;100.00;98439.00;5034752;28;20037;-66
2023/01/17 05:32:46;;;;;;;2.08;0.80;;;;;;;3.67;100.00;98442.72;5031060;28;20021;-66
2023/01/17 05:35:12;;;;;;;2.15;0.95;;;;;;;3.73;100.00;98443.91;5031755;28;20033;-67
2023/01/17 05:37:37;;;;;;;2.38;1.00;;;;;;;3.69;100.00;98447.75;5030302;28;20512;-66
2023/01/17 05:40:04;;;;;;;3.10;0.85;;;;;;;3.61;100.00;98448.47;5033299;28;20025;-67
2023/01/17 05:42:30;;;;;;;2.47;1.08;;;;;;;3.63;100.00;98444.78;5034504;28;20068;-67
2023/01/17 05:44:56;;;;;;;2.35;1.15;;;;;;;3.63;100.00;98459.44;5031061;28;20025;-68
2023/01/17 05:47:21;;;;;;;2.58;1.45;;;;;;;3.67;100.00;98450.47;5031785;28;20133;-69
2023/01/17 05:49:46;;;;;;;4.25;1.92;;;;;;;3.69;100.00;98452.88;5030393;28;20057;-69
2023/01/17 05:52:12;;;;;;;6.45;3.28;;;;;;;3.64;100.00;98461.88;5035174;28;20528;-68
2023/01/17 05:54:38;;;;;;;7.63;3.40;;;;;;;3.71;100.00;98463.84;5036124;28;20033;-69
2023/01/17 05:57:03;;;;;;;6.50;3.22;;;;;;;3.78;100.00;98473.38;5033639;28;20061;-69
2023/01/17 05:59:28;;;;;;;8.07;4.00;;;;;;;3.87;100.00;98467.34;5030346;28;20033;-68
2023/01/17 06:01:54;;;;;;;9.05;3.78;;;;;;;3.87;100.00;98458.78;5035096;28;20064;-69
2023/01/17 06:04:19;;;;;;;7.45;3.20;;;;;;;3.77;100.00;98451.19;5030298;28;20115;-69
2023/01/17 06:06:45;;;;;;;10.07;4.70;;;;;;;3.72;100.00;98452.59;5029742;28;20032;-68
2023/01/17 06:09:10;;;;;;;4.85;2.30;;;;;;;3.66;100.00;98457.38;5029809;28;20385;-68
2023/01/17 06:11:36;;;;;;;3.65;1.00;;;;;;;3.63;100.00;98444.78;5030401;28;20037;-69
2023/01/17 06:14:01;;;;;;;1.92;0.82;;;;;;;3.63;100.00;98449.94;5030106;28;20041;-69
2023/01/17 06:16:26;;;;;;;1.30;0.90;;;;;;;3.58;100.00;98441.84;5030208;28;20048;-69
2023/01/17 06:18:52;;;;;;;3.00;1.50;;;;;;;3.49;100.00;98435.03;5029734;28;20033;-69
2023/01/17 06:21:18;;;;;;;2.38;1.10;;;;;;;3.50;100.00;98449.50;5030400;28;20119;-68
2023/01/17 06:23:43;;;;;;;4.50;1.30;;;;;;;3.43;100.00;98453.63;5029361;28;20068;-68
2023/01/17 06:26:09;;;;;;;3.20;1.85;;;;;;;3.50;100.00;98457.25;5026309;28;20055;-69
2023/01/17 06:28:35;;;;;;;2.20;1.70;;;;;;;3.52;100.00;98455.31;5029575;28;20116;-69
2023/01/17 06:31:05;;;;;;;2.15;1.40;;;;;;;3.53;100.00;98444.06;5030558;28;20180;-69
2023/01/17 06:33:31;;;;;;;1.70;1.30;;;;;;;3.53;100.00;98449.22;5027024;28;20512;-69
2023/01/17 06:35:56;;;;;;;2.50;1.33;;;;;;;3.58;100.00;98444.44;5029388;28;20037;-69
2023/01/17 06:38:21;;;;;;;2.35;1.02;;;;;;;3.56;100.00;98441.19;5031819;28;20445;-68
2023/01/17 06:40:47;;;;;;;1.70;1.05;;;;;;;3.56;100.00;98446.34;5031863;28;20088;-68
2023/01/17 06:43:12;;;;;;;2.50;1.20;;;;;;;3.55;100.00;98451.66;5036263;28;20043;-68
2023/01/17 06:45:38;;;;;;;1.65;0.77;;;;;;;3.50;100.00;98449.50;5030579;28;20495;-69
2023/01/17 06:48:04;;;;;;;1.98;0.82;;;;;;;3.50;100.00;98453.84;5029218;28;20040;-68
2023/01/17 06:50:32;;;;;;;1.52;0.88;;;;;;;3.42;100.00;98454.59;5028154;28;20107;-69
2023/01/17 06:53:01;;;;;;;1.73;0.93;;;;;;;3.42;100.00;98457.16;5028729;28;20037;-68
2023/01/17 06:55:29;;;;;;;3.67;1.60;;;;;;;3.40;100.00;98450.53;5030338;28;20041;-69
2023/01/17 06:57:58;;;;;;;2.20;1.17;;;;;;;3.43;100.00;98452.81;5032059;28;20037;-68
2023/01/17 07:00:24;;;;;;;2.28;1.20;;;;;;;3.40;100.00;98448.78;5028857;28;20056;-70
2023/01/17 07:02:50;;;;;;;2.83;1.35;;;;;;;3.37;100.00;98448.25;5026317;28;20122;-69
2023/01/17 07:05:16;;;;;;;3.00;1.50;;;;;;;3.34;100.00;98454.50;5025559;28;20025;-67
2023/01/17 07:07:43;;;;;;;5.03;1.42;;;;;;;3.32;100.00;98456.44;5028675;28;20036;-68
2023/01/17 07:10:13;;;;;;;3.42;1.00;;;;;;;3.34;100.00;98447.59;5029099;28;20117;-68
2023/01/17 07:12:38;;;;;;;3.53;1.20;;;;;;;3.33;100.00;98448.56;5027777;28;20116;-68
2023/01/17 07:15:05;;;;;;;3.17;1.35;;;;;;;3.34;100.00;98452.75;5028945;28;20124;-68
2023/01/17 07:17:32;;;;;;;5.72;1.42;;;;;;;3.37;100.00;98454.22;5027665;28;20383;-68
2023/01/17 07:19:58;;;;;;;2.85;1.50;;;;;;;3.40;100.00;98450.53;5026240;28;20068;-68
2023/01/17 07:22:23;;;;;;;3.08;2.00;;;;;;;3.41;100.00;98447.81;5032782;28;20053;-68
2023/01/17 07:24:49;;;;;;;3.35;1.63;;;;;;;3.43;100.00;98445.91;5030848;28;20056;-68
2023/01/17 07:27:14;;;;;;;3.10;1.75;;;;;;;3.49;100.00;98440.19;5033347;28;20045;-68
2023/01/17 07:29:39;;;;;;;2.38;1.30;;;;;;;3.50;100.00;98446.94;5029914;28;20064;-68
2023/01/17 07:32:07;;;;;;;3.72;0.80;;;;;;;3.49;100.00;98440.19;5029886;28;20393;-68
2023/01/17 07:34:33;;;;;;;1.98;1.45;;;;;;;3.53;100.00;98432.97;5031684;28;20036;-68
2023/01/17 07:36:58;;;;;;;2.67;1.58;;;;;;;3.54;100.00;98432.00;5028243;28;20116;-68
2023/01/17 07:39:24;;;;;;;2.85;1.63;;;;;;;3.52;100.00;98421.84;5028846;28;20033;-68
2023/01/17 07:41:49;;;;;;;4.65;2.30;;;;;;;3.52;100.00;98410.75;5029105;28;20082;-68
2023/01/17 07:44:15;;;;;;;3.58;2.50;;;;;;;3.52;100.00;98406.41;5029523;28;20075;-67
2023/01/17 07:46:40;;;;;;;3.30;1.60;;;;;;;3.57;100.00;98403.38;5028870;28;20083;-68
2023/01/17 07:49:06;;;;;;;3.38;1.80;;;;;;;3.63;100.00;98405.34;5029129;28;20420;-68
2023/01/17 07:51:31;;;;;;;2.17;1.10;;;;;;;3.67;100.00;98412.63;5028819;28;20447;-68
2023/01/17 07:53:56;;;;;;;2.97;1.58;;;;;;;3.72;100.00;98414.75;5028983;28;20018;-68
2023/01/17 07:56:22;;;;;;;3.92;1.52;;;;;;;3.78;100.00;98421.88;5028057;28;20084;-68
2023/01/17 07:58:48;;;;;;;3.75;1.10;;;;;;;3.80;100.00;98425.09;5027622;28;20064;-68
2023/01/17 08:01:14;;;;;;;3.33;1.35;;;;;;;3.84;100.00;98423.03;5032384;28;20033;-68
2023/01/17 08:03:39;;;;;;;4.50;1.52;;;;;;;3.90;100.00;98430.97;5031426;28;20045;-69
2023/01/17 08:06:14;;;;;;;4.28;2.22;;;;;;;3.94;100.00;98426.31;5027413;28;20025;-68
2023/01/17 08:08:39;;;;;;;5.55;2.47;;;;;;;3.97;100.00;98431.97;5027620;28;20131;-69
2023/01/17 08:11:04;;;;;;;5.28;2.72;;;;;;;3.98;100.00;98432.78;5029251;28;20116;-68
2023/01/17 08:13:30;;;;;;;5.00;2.13;;;;;;;4.01;100.00;98422.19;5027400;28;20033;-68
2023/01/17 08:15:56;;;;;;;4.57;2.50;;;;;;;4.09;100.00;98427.38;5027944;28;20044;-68
2023/01/17 08:18:22;;;;;;;4.63;2.00;;;;;;;4.13;100.00;98422.72;5027401;28;20029;-68
2023/01/17 08:20:47;;;;;;;3.97;1.95;;;;;;;4.15;100.00;98424.19;5028603;28;20022;-68
2023/01/17 08:23:13;;;;;;;5.10;2.08;;;;;;;4.17;100.00;98417.13;5028847;28;20021;-67
2023/01/17 08:25:38;;;;;;;4.75;2.45;;;;;;;4.21;100.00;98418.44;5027833;28;20080;-68
2023/01/17 08:28:04;;;;;;;5.22;2.25;;;;;;;4.30;100.00;98416.66;5028854;28;20061;-69
2023/01/17 08:30:30;;;;;;;3.83;2.63;;;;;;;4.36;100.00;98410.09;5031564;28;20044;-68
2023/01/17 08:32:55;;;;;;;4.30;2.13;;;;;;;4.40;100.00;98396.75;5030213;28;20029;-68
2023/01/17 08:35:21;;;;;;;7.38;2.08;;;;;;;4.44;100.00;98395.47;5030288;28;20033;-68
2023/01/17 08:37:47;;;;;;;4.07;1.65;;;;;;;4.50;100.00;98401.78;5031610;28;20034;-68
2023/01/17 08:40:15;;;;;;;2.80;1.05;;;;;;;4.56;100.00;98396.81;5023674;28;20038;-68
2023/01/17 08:42:42;;;;;;;2.67;1.55;;;;;;;4.58;100.00;98394.06;5027497;28;20029;-68
2023/01/17 08:45:10;;;;;;;2.30;0.95;;;;;;;4.64;100.00;98408.91;5030006;28;20135;-69
2023/01/17 08:47:36;;;;;;;3.30;1.20;;;;;;;4.69;100.00;98408.44;5025627;28;20033;-67
2023/01/17 08:50:05;;;;;;;1.75;0.90;;;;;;;4.68;100.00;98404.25;5030390;28;20083;-68
2023/01/17 08:52:32;;;;;;;3.03;1.00;;;;;;;4.70;100.00;98399.75;5029089;28;20493;-69
2023/01/17 08:54:58;;;;;;;2.47;1.17;;;;;;;4.70;100.00;98405.72;5027985;28;20029;-69
2023/01/17 08:57:23;;;;;;;6.18;1.10;;;;;;;4.69;100.00;98411.03;5027998;28;20033;-68
2023/01/17 08:59:49;;;;;;;2.75;0.98;;;;;;;4.68;100.00;98407.66;5027961;28;20556;-69
2023/01/17 09:02:16;;;;;;;3.08;1.33;;;;;;;4.65;100.00;98397.63;5028602;28;20132;-69
2023/01/17 09:04:46;;;;;;;6.30;2.13;;;;;;;4.60;100.00;98371.50;5027895;28;20369;-69
2023/01/17 09:07:12;;;;;;;4.22;2.00;;;;;;;4.62;100.00;98379.91;5030584;28;20380;-68
2023/01/17 09:09:38;;;;;;;4.57;1.83;;;;;;;4.68;100.00;98378.47;5030946;28;20041;-68
2023/01/17 09:12:05;;;;;;;4.03;1.58;;;;;;;4.74;100.00;98381.19;5032227;28;20366;-69
2023/01/17 09:14:31;;;;;;;2.85;1.33;;;;;;;4.77;100.00;98367.16;5031303;28;20386;-68
2023/01/17 09:16:56;;;;;;;3.97;1.95;;;;;;;4.78;100.00;98367.00;5035731;28;20074;-68
2023/01/17 09:19:21;;;;;;;6.38;1.63;;;;;;;4.83;100.00;98362.19;5031486;28;20041;-68
2023/01/17 09:21:47;;;;;;;6.40;1.33;;;;;;;4.87;100.00;98360.09;5032257;28;20377;-68
2023/01/17 09:24:12;;;;;;;3.63;1.08;;;;;;;4.93;100.00;98359.47;5036077;28;20131;-68
2023/01/17 09:26:38;;;;;;;4.47;1.02;;;;;;;4.96;100.00;98359.94;5033835;28;20465;-68
2023/01/17 09:29:03;;;;;;;2.67;0.82;;;;;;;4.99;100.00;98362.22;5030514;28;20119;-68
2023/01/17 09:31:29;;;;;;;2.38;0.93;;;;;;;5.02;100.00;98365.44;5028859;28;20029;-68
2023/01/17 09:33:56;;;;;;;3.42;1.20;;;;;;;5.00;100.00;98370.75;5036152;28;21418;-68
2023/01/17 09:36:22;;;;;;;3.70;0.85;;;;;;;5.03;100.00;98362.72;5035339;28;20504;-68
2023/01/17 09:38:48;;;;;;;3.75;1.05;;;;;;;5.11;100.00;98356.75;5031084;28;20401;-69
2023/01/17 09:41:39;;;;;;;2.95;1.30;;;;;;;5.09;100.00;98356.91;5033631;28;20029;-67
2023/01/17 09:44:30;;;;;;;3.72;1.48;;;;;;;5.08;100.00;98360.44;5026422;28;20025;-68
2023/01/17 09:47:02;;;;;;;2.95;1.75;;;;;;;5.10;100.00;98348.19;5032522;28;20029;-68
2023/01/17 09:49:42;;;;;;;3.13;1.70;;;;;;;5.05;100.00;98344.47;5029673;28;20128;-69
2023/01/17 09:52:12;;;;;;;6.15;2.33;;;;;;;5.06;100.00;98346.91;5030579;28;20219;-68
2023/01/17 09:54:40;;;;;;;8.48;2.13;;;;;;;5.07;100.00;98337.38;5029012;28;20044;-68
2023/01/17 09:57:17;;;;;;;5.03;1.50;;;;;;;5.05;100.00;98340.13;5031437;28;20063;-69
2023/01/17 10:00:01;;;;;;;5.28;1.35;;;;;;;5.09;100.00;98325.13;5029990;28;20033;-68
2023/01/17 10:03:18;;;;;;;2.72;1.85;;;;;;;5.09;100.00;98307.88;5031509;28;20037;-68
2023/01/17 10:06:10;;;;;;;;;;;;;;;5.10;100.00;98306.09;5010532;28;20045;-68
2023/01/17 10:09:02;;;;;;;3.80;1.40;;;;;;;5.15;100.00;98290.94;5029944;28;19913;-69
2023/01/17 10:12:06;;;;;;;2.35;1.30;;;;;;;5.19;100.00;98269.78;5031422;28;20515;-68
2023/01/17 10:14:41;;;;;;;1.35;0.75;;;;;;;5.27;100.00;98254.25;5030075;28;20084;-67
2023/01/17 10:17:23;;;;;;;2.88;1.20;;;;;;;5.32;100.00;98258.94;5030339;28;20064;-68
2023/01/17 10:20:08;;;;;;;3.53;1.27;;;;;;;5.34;100.00;98237.13;5028928;28;20030;-67
2023/01/17 10:22:36;;;;;;;8.27;1.20;;;;;;;5.44;100.00;98236.16;5030003;28;20512;-67
2023/01/17 10:25:32;;;;;;;5.72;0.98;;;;;;;5.48;100.00;98221.94;5027497;28;20037;-68
2023/01/17 10:28:25;;;;;;;3.15;0.70;;;;;;;5.53;100.00;98217.06;5027450;28;20120;-68
2023/01/17 10:30:56;;;;;;;4.45;0.93;;;;;;;5.56;100.00;98214.97;5026587;28;20041;-68
2023/01/17 10:33:28;;;;;;;2.75;1.23;;;;;;;5.60;100.00;98205.91;5030133;28;20072;-68
2023/01/17 10:36:06;;;;;;;3.83;1.40;;;;;;;5.67;100.00;98208.63;5033532;28;20480;-68
2023/01/17 10:38:35;;;;;;;4.80;1.40;;;;;;;5.75;100.00;98207.78;5028396;28;20037;-68
2023/01/17 10:41:15;;;;;;;3.55;1.48;;;;;;;5.85;100.00;98201.41;5031192;28;20039;-68
2023/01/17 10:44:24;;;;;;;2.80;0.95;;;;;;;5.91;100.00;98212.91;5030463;28;20041;-68
2023/01/17 10:47:04;;;;;;;2.80;0.82;;;;;;;5.96;100.00;98215.78;5033754;28;20021;-68
2023/01/17 10:49:30;;;;;;;4.28;0.90;;;;;;;5.98;100.00;98208.66;5030618;28;20187;-68
2023/01/17 10:51:59;;;;;;;4.63;1.38;;;;;;;5.94;100.00;98209.97;5035132;28;20494;-68
2023/01/17 10:54:28;;;;;;;4.10;1.05;;;;;;;5.92;100.00;98219.69;5033656;28;20036;-68
2023/01/17 10:56:54;;;;;;;4.78;1.08;;;;;;;5.87;100.00;98209.00;5031971;28;20060;-69
2023/01/17 10:59:36;;;;;;;1.67;0.60;;;;;;;5.78;100.00;98208.25;5027661;28;20036;-68
2023/01/17 11:02:05;;;;;;;2.33;0.68;;;;;;;5.75;100.00;98208.56;5031769;28;20056;-68
2023/01/17 11:04:35;;;;;;;3.17;1.25;;;;;;;5.71;100.00;98202.13;5031070;28;20029;-68
2023/01/17 11:07:25;;;;;;;2.17;0.90;;;;;;;5.65;100.00;98198.47;5029390;28;20025;-67
2023/01/17 11:09:54;;;;;;;4.50;1.05;;;;;;;5.65;100.00;98195.88;5030835;28;20128;-68
2023/01/17 11:12:37;;;;;;;4.82;1.63;;;;;;;5.63;100.00;98189.28;5030089;28;20029;-68
2023/01/17 11:15:16;;;;;;;5.10;1.98;;;;;;;5.59;100.00;98178.47;5033309;28;20550;-68
2023/01/17 11:17:51;;;;;;;6.65;2.13;;;;;;;5.53;100.00;98166.22;5034180;28;20044;-67
2023/01/17 11:20:28;;;;;;;7.35;2.67;;;;;;;5.51;100.00;98170.75;5034614;28;20029;-70
2023/01/17 11:23:05;;;;;;;4.00;2.35;;;;;;;5.47;100.00;98169.47;5024758;28;20033;-68
2023/01/17 11:25:36;;;;;;;5.30;2.08;;;;;;;5.43;100.00;98170.78;5033334;28;20033;-68
2023/01/17 11:28:06;;;;;;;8.40;3.15;;;;;;;5.38;100.00;98187.75;5030360;28;20422;-68
2023/01/17 11:30:31;;;;;;;11.98;3.60;;;;;;;5.33;100.00;98175.31;5025019;28;20041;-68
2023/01/17 11:33:03;;;;;;;5.65;3.42;;;;;;;5.30;100.00;98179.06;5036098;28;20052;-68
2023/01/17 11:35:34;;;;;;;5.70;1.70;;;;;;;5.27;100.00;98169.06;5032372;28;20060;-69
2023/01/17 11:38:16;;;;;;;8.35;2.13;;;;;;;5.27;100.00;98169.06;5034913;28;20912;-68
2023/01/17 11:40:48;;;;;;;13.23;4.00;;;;;;;5.23;100.00;98154.06;5030852;28;20034;-68
2023/01/17 11:43:19;;;;;;;19.10;5.75;;;;;;;5.19;100.00;98145.06;5029699;28;20044;-69
2023/01/17 11:45:58;;;;;;;18.05;4.97;;;;;;;5.16;100.00;98141.03;5030156;28;20034;-68
2023/01/17 11:48:24;;;;;;;7.03;2.63;;;;;;;5.18;100.00;98133.13;5028611;28;20039;-68
2023/01/17 11:50:52;;;;;;;5.68;1.60;;;;;;;5.17;100.00;98134.09;5035428;28;20049;-69
2023/01/17 11:53:20;;;;;;;7.43;1.88;;;;;;;5.14;100.00;98132.66;5034834;28;20499;-68
2023/01/17 11:56:16;;;;;;;5.47;1.85;;;;;;;5.05;100.00;98125.09;5028403;28;20044;-68
2023/01/17 11:58:44;;;;;;;3.35;1.73;;;;;;;4.96;100.00;98124.31;5028982;28;20060;-67
2023/01/17 12:01:15;;;;;;;3.58;1.40;;;;;;;4.88;100.00;98117.41;5034502;28;20047;-68
2023/01/17 12:04:15;;;;;;;6.97;1.38;;;;;;;4.79;100.00;98118.38;5024720;28;20052;-69
2023/01/17 12:06:48;;;;;;;10.50;2.80;;;;;;;4.78;100.00;98119.34;5027223;28;20048;-68
2023/01/17 12:09:32;;;;;;;5.22;2.25;;;;;;;4.78;100.00;98103.88;5029611;28;20036;-69
2023/01/17 12:15:08;;;;;;;7.45;2.85;;;;;;;4.78;100.00;98100.47;5026335;28;20765;-68
2023/01/17 12:18:10;;;;;;;6.30;2.92;;;;;;;4.78;100.00;98096.13;5030083;28;20045;-68
2023/01/17 12:21:11;;;;;;;8.05;2.40;;;;;;;4.75;100.00;98086.13;5027069;28;20460;-69
2023/01/17 12:24:07;;;;;;;4.30;2.22;;;;;;;4.72;100.00;98081.34;5028441;28;20041;-68
2023/01/17 12:26:41;;;;;;;9.05;1.98;;;;;;;4.72;100.00;98063.28;5027442;28;20060;-69
2023/01/17 12:29:15;;;;;;;6.78;1.95;;;;;;;4.74;100.00;98063.09;5024519;28;20127;-68
2023/01/17 12:31:55;;;;;;;7.70;1.98;;;;;;;4.78;100.00;98062.59;5032770;28;20033;-68
2023/01/17 12:34:29;;;;;;;6.38;1.92;;;;;;;4.81;100.00;98059.69;5027570;28;20112;-68
2023/01/17 12:37:04;;;;;;;6.10;2.00;;;;;;;4.85;100.00;98049.84;5028803;28;20060;-68
2023/01/17 12:39:37;;;;;;;9.10;2.45;;;;;;;4.89;100.00;98051.91;5030410;28;20045;-69
2023/01/17 12:42:18;;;;;;;9.38;2.65;;;;;;;4.92;100.00;98050.78;5031553;28;20119;-68
2023/01/17 12:44:50;;;;;;;7.82;2.20;;;;;;;4.96;100.00;98042.53;5030424;28;20036;-69
2023/01/17 12:47:19;;;;;;;4.90;2.20;;;;;;;4.99;100.00;98026.72;5028938;28;20034;-68
2023/01/17 12:49:49;;;;;;;8.45;2.53;;;;;;;5.04;100.00;98022.84;5032653;28;20490;-68
2023/01/17 12:52:44;;;;;;;4.38;2.30;;;;;;;5.07;100.00;98012.97;5031651;28;20037;-69
2023/01/17 12:55:33;;;;;;;11.55;3.38;;;;;;;5.09;100.00;97999.91;5029591;28;20044;-68
2023/01/17 12:58:01;;;;;;;7.32;3.60;;;;;;;5.10;100.00;97983.44;5029174;28;20041;-69
2023/01/17 13:00:28;;;;;;;9.07;3.65;;;;;;;5.06;100.00;97982.97;5029446;28;20056;-69
2023/01/17 13:03:15;;;;;;;5.93;1.55;;;;;;;4.98;100.00;97990.75;5032680;28;20059;-68
2023/01/17 13:05:44;;;;;;;5.95;2.25;;;;;;;4.98;100.00;97988.19;5024581;28;20175;-69
2023/01/17 13:08:25;;;;;;;9.50;4.50;;;;;;;4.95;100.00;97986.75;5032100;28;20029;-69
2023/01/17 13:11:03;;;;;;;12.80;5.40;;;;;;;4.93;100.00;97991.28;5030066;28;20033;-68
2023/01/17 13:13:30;;;;;;;18.10;9.27;;;;;;;4.85;100.00;97977.59;5029083;28;20033;-69